createdAt,value
2023-01-13T00:00:47.302Z,7.47
2023-01-13T00:05:59.456Z,7.49
2023-01-13T00:11:02.324Z,7.48
2023-01-13T00:16:07.962Z,7.48
2023-01-13T00:21:17.872Z,7.48
2023-01-13T00:26:27.121Z,7.48
2023-01-13T00:31:30.224Z,7.50
2023-01-13T00:36:33.335Z,7.49
2023-01-13T00:41:54.769Z,7.50
2023-01-13T00:46:57.673Z,7.47
2023-01-13T00:52:00.474Z,7.45
2023-01-13T00:57:04.908Z,7.43
2023-01-13T01:02:07.854Z,7.42
2023-01-13T01:07:10.724Z,7.40
2023-01-13T01:12:14.445Z,7.40
2023-01-13T01:17:17.255Z,7.40
2023-01-13T01:22:20.048Z,7.43
2023-01-13T01:27:22.846Z,7.44
2023-01-13T01:32:25.658Z,7.45
2023-01-13T01:37:28.448Z,7.46
2023-01-13T01:42:49.786Z,7.47
2023-01-13T01:47:58.118Z,7.47
2023-01-13T01:53:15.254Z,7.47
2023-01-13T01:58:32.805Z,7.45
2023-01-13T02:03:42.158Z,7.43
2023-01-13T02:08:46.393Z,7.35
2023-01-13T02:13:49.193Z,7.26
2023-01-13T02:19:02.361Z,7.21
2023-01-13T02:24:56.765Z,7.17
2023-01-13T02:30:41.742Z,7.16
2023-01-13T02:36:22.232Z,7.14
2023-01-13T02:41:55.646Z,7.13
2023-01-13T02:47:06.739Z,7.12
2023-01-13T02:52:15.792Z,7.11
2023-01-13T02:57:21.149Z,7.10
2023-01-13T03:02:25.820Z,7.09
2023-01-13T03:08:01.566Z,7.09
2023-01-13T03:13:15.712Z,7.09
2023-01-13T03:18:33.788Z,7.09
2023-01-13T03:23:51.952Z,7.11
2023-01-13T03:29:04.247Z,7.14
2023-01-13T03:34:22.035Z,7.15
2023-01-13T03:39:35.496Z,7.16
2023-01-13T03:45:09.103Z,7.18
2023-01-13T03:50:41.295Z,7.18
2023-01-13T03:55:50.251Z,7.22
2023-01-13T04:00:59.007Z,7.23
2023-01-13T04:06:27.984Z,7.24
2023-01-13T04:11:47.362Z,7.24
2023-01-13T04:16:50.319Z,7.25
2023-01-13T04:21:53.072Z,7.25
2023-01-13T04:26:56.606Z,7.27
2023-01-13T04:31:59.412Z,7.28
2023-01-13T04:37:02.117Z,7.29
2023-01-13T04:42:04.809Z,7.29
2023-01-13T04:47:07.491Z,7.31
2023-01-13T04:52:10.204Z,7.32
2023-01-13T04:57:12.956Z,7.33
2023-01-13T05:02:20.017Z,7.34
2023-01-13T05:07:22.905Z,7.36
2023-01-13T05:12:44.352Z,7.38
2023-01-13T05:17:47.784Z,7.39
2023-01-13T05:23:08.969Z,7.39
2023-01-13T05:28:11.839Z,7.39
2023-01-13T05:33:17.843Z,7.39
2023-01-13T05:38:20.574Z,7.39
2023-01-13T05:43:24.871Z,7.39
2023-01-13T05:48:31.004Z,7.38
2023-01-13T05:53:35.057Z,7.39
2023-01-13T05:58:37.931Z,7.39
2023-01-13T06:03:40.833Z,7.40
2023-01-13T06:08:43.508Z,7.40
2023-01-13T06:13:46.528Z,7.41
2023-01-13T06:18:49.435Z,7.40
2023-01-13T06:23:52.120Z,7.41
2023-01-13T06:28:54.895Z,7.42
2023-01-13T06:34:02.760Z,7.41
2023-01-13T06:39:09.525Z,7.41
2023-01-13T06:44:12.169Z,7.44
2023-01-13T06:49:14.903Z,7.47
2023-01-13T06:54:17.603Z,7.47
2023-01-13T06:59:20.287Z,7.49
2023-01-13T07:04:23.036Z,7.51
2023-01-13T07:09:25.843Z,7.54
2023-01-13T07:14:47.365Z,7.55
2023-01-13T07:19:50.077Z,7.57
2023-01-13T07:24:52.761Z,7.59
2023-01-13T07:29:56.180Z,7.60
2023-01-13T07:35:05.107Z,7.61
2023-01-13T07:40:08.621Z,7.66
2023-01-13T07:45:12.462Z,7.68
2023-01-13T07:50:15.328Z,7.72
2023-01-13T07:55:18.779Z,7.76
2023-01-13T08:00:22.039Z,7.80
2023-01-13T08:05:24.916Z,7.83
2023-01-13T08:10:27.944Z,7.84
2023-01-13T08:15:34.837Z,7.85
2023-01-13T08:20:37.731Z,7.86
2023-01-13T08:25:40.803Z,7.86
2023-01-13T08:30:43.833Z,7.87
2023-01-13T08:35:48.178Z,7.89
2023-01-13T08:40:51.081Z,7.91
2023-01-13T08:45:59.803Z,7.94
2023-01-13T08:51:08.853Z,7.99
2023-01-13T08:56:12.679Z,8.01
2023-01-13T09:01:21.459Z,8.03
2023-01-13T09:06:24.522Z,8.05
2023-01-13T09:11:50.535Z,8.09
2023-01-13T09:16:53.582Z,8.11
2023-01-13T09:21:57.522Z,8.13
2023-01-13T09:27:00.227Z,8.13
2023-01-13T09:32:03.349Z,8.14
2023-01-13T09:37:07.732Z,8.14
2023-01-13T09:42:54.992Z,8.14
2023-01-13T09:48:05.492Z,8.15
2023-01-13T09:53:17.150Z,8.16
2023-01-13T09:58:20.009Z,8.19
2023-01-13T10:03:35.026Z,8.19
2023-01-13T10:08:40.363Z,8.21
2023-01-13T10:13:43.967Z,8.21
2023-01-13T10:19:07.100Z,8.24
2023-01-13T10:24:52.657Z,8.26
2023-01-13T10:29:55.472Z,8.26
2023-01-13T10:34:58.219Z,8.27
2023-01-13T10:40:03.422Z,8.28
2023-01-13T10:45:19.355Z,8.29
2023-01-13T10:50:27.123Z,8.34
2023-01-13T10:55:39.012Z,8.37
2023-01-13T11:00:41.996Z,8.41
2023-01-13T11:06:03.342Z,8.43
2023-01-13T11:11:42.203Z,8.44
2023-01-13T11:16:53.476Z,8.45
2023-01-13T11:22:02.794Z,8.46
2023-01-13T11:27:27.176Z,8.49
2023-01-13T11:32:36.089Z,8.52
2023-01-13T11:37:44.194Z,8.54
2023-01-13T11:42:57.024Z,8.57
2023-01-13T11:48:01.554Z,8.60
2023-01-13T11:53:19.911Z,8.60
2023-01-13T11:58:50.323Z,8.61
2023-01-13T12:04:15.232Z,8.61
2023-01-13T12:09:56.175Z,8.60
2023-01-13T12:15:18.645Z,8.61
2023-01-13T12:21:13.905Z,8.62
2023-01-13T12:26:20.261Z,8.60
2023-01-13T12:31:25.288Z,8.58
2023-01-13T12:36:31.418Z,8.55
2023-01-13T12:42:20.971Z,8.55
2023-01-13T12:47:48.846Z,8.53
2023-01-13T12:52:53.010Z,8.51
2023-01-13T12:58:04.822Z,8.49
2023-01-13T13:03:08.253Z,8.48
2023-01-13T13:08:50.613Z,8.48
2023-01-13T13:13:53.649Z,8.48
2023-01-13T13:19:32.047Z,8.48
2023-01-13T13:24:34.787Z,8.45
2023-01-13T13:29:42.325Z,8.47
2023-01-13T13:34:57.210Z,8.46
2023-01-13T13:40:27.640Z,8.48
2023-01-13T13:45:49.510Z,8.50
2023-01-13T13:51:04.833Z,8.51
2023-01-13T13:56:17.529Z,8.51
2023-01-13T14:01:29.910Z,8.51
2023-01-13T14:06:33.082Z,8.50
2023-01-13T14:11:36.414Z,8.50
2023-01-13T14:16:41.057Z,8.51
2023-01-13T14:21:48.258Z,8.52
2023-01-13T14:26:53.241Z,8.54
2023-01-13T14:31:56.117Z,8.54
2023-01-13T14:36:59.122Z,8.50
2023-01-13T14:42:02.109Z,8.47
2023-01-13T14:47:19.775Z,8.44
2023-01-13T14:52:24.567Z,8.42
2023-01-13T14:57:31.942Z,8.43
2023-01-13T15:02:39.648Z,8.44
2023-01-13T15:07:53.628Z,8.44
2023-01-13T15:12:59.385Z,8.46
2023-01-13T15:18:11.925Z,8.49
2023-01-13T15:23:14.714Z,8.50
2023-01-13T15:28:23.666Z,8.47
2023-01-13T15:33:26.662Z,8.47
2023-01-13T15:38:29.346Z,8.47
2023-01-13T15:43:50.790Z,8.47
2023-01-13T15:48:54.707Z,8.47
2023-01-13T15:54:00.694Z,8.46
2023-01-13T15:59:05.293Z,8.44
2023-01-13T16:04:09.507Z,8.41
2023-01-13T16:09:14.403Z,8.37
2023-01-13T16:14:17.102Z,8.36
2023-01-13T16:19:20.045Z,8.33
2023-01-13T16:24:23.134Z,8.30
2023-01-13T16:29:25.787Z,8.27
2023-01-13T16:34:29.005Z,8.23
2023-01-13T16:39:31.780Z,8.21
2023-01-13T16:44:34.501Z,8.20
2023-01-13T16:49:37.196Z,8.19
2023-01-13T16:54:39.955Z,8.18
2023-01-13T16:59:42.712Z,8.16
2023-01-13T17:04:45.507Z,8.16
2023-01-13T17:09:48.316Z,8.15
2023-01-13T17:14:51.113Z,8.14
2023-01-13T17:19:54.449Z,8.13
2023-01-13T17:24:57.239Z,8.12
2023-01-13T17:29:59.983Z,8.10
2023-01-13T17:35:02.803Z,8.09
2023-01-13T17:40:06.595Z,8.07
2023-01-13T17:45:12.128Z,8.04
2023-01-13T17:50:17.173Z,8.04
2023-01-13T17:55:20.185Z,8.01
2023-01-13T18:00:22.924Z,7.99
2023-01-13T18:05:25.674Z,7.97
2023-01-13T18:10:28.341Z,7.96
2023-01-13T18:15:31.575Z,7.96
2023-01-13T18:20:53.733Z,7.95
2023-01-13T18:26:14.984Z,7.94
2023-01-13T18:31:17.686Z,7.93
2023-01-13T18:36:20.671Z,7.93
2023-01-13T18:41:42.213Z,7.93
2023-01-13T18:46:45.011Z,7.92
2023-01-13T18:51:47.710Z,7.90
2023-01-13T18:56:50.433Z,7.85
2023-01-13T19:01:53.353Z,7.81
2023-01-13T19:07:01.077Z,7.79
2023-01-13T19:12:06.239Z,7.76
2023-01-13T19:17:14.727Z,7.73
2023-01-13T19:22:28.686Z,7.69
2023-01-13T19:27:31.795Z,7.67
2023-01-13T19:32:34.480Z,7.64
2023-01-13T19:37:38.522Z,7.64
2023-01-13T19:43:02.544Z,7.61
2023-01-13T19:48:07.427Z,7.57
2023-01-13T19:53:17.958Z,7.52
2023-01-13T19:58:23.241Z,7.45
2023-01-13T20:03:31.119Z,7.39
2023-01-13T20:08:33.824Z,7.31
2023-01-13T20:13:36.700Z,7.24
2023-01-13T20:18:40.057Z,7.15
2023-01-13T20:23:44.307Z,7.06
2023-01-13T20:28:47.658Z,7.00
2023-01-13T20:33:50.944Z,6.92
2023-01-13T20:38:59.366Z,6.86
2023-01-13T20:44:02.383Z,6.77
2023-01-13T20:49:05.345Z,6.70
2023-01-13T20:54:09.431Z,6.65
2023-01-13T20:59:12.442Z,6.58
2023-01-13T21:04:15.464Z,6.52
2023-01-13T21:09:18.684Z,6.46
2023-01-13T21:14:43.327Z,6.40
2023-01-13T21:19:46.254Z,6.34
2023-01-13T21:24:49.499Z,6.30
2023-01-13T21:29:52.357Z,6.27
2023-01-13T21:34:55.372Z,6.25
2023-01-13T21:39:58.067Z,6.22
2023-01-13T21:45:20.115Z,6.21
2023-01-13T21:50:26.172Z,6.18
2023-01-13T21:55:29.340Z,6.16
2023-01-13T22:00:33.699Z,6.14
2023-01-13T22:05:37.099Z,6.08
2023-01-13T22:10:57.980Z,6.03
2023-01-13T22:16:04.945Z,5.95
2023-01-13T22:21:08.181Z,5.90
2023-01-13T22:26:11.475Z,5.85
2023-01-13T22:31:17.284Z,5.81
2023-01-13T22:36:20.474Z,5.80
2023-01-13T22:41:23.251Z,5.76
2023-01-13T22:46:26.372Z,5.72
2023-01-13T22:51:30.667Z,5.68
2023-01-13T22:56:33.536Z,5.64
2023-01-13T23:01:36.528Z,5.60
2023-01-13T23:06:40.405Z,5.58
2023-01-13T23:11:43.231Z,5.56
2023-01-13T23:16:47.165Z,5.53
2023-01-13T23:21:50.420Z,5.51
2023-01-13T23:26:53.111Z,5.50
2023-01-13T23:31:55.944Z,5.50
2023-01-13T23:36:58.805Z,5.51
2023-01-13T23:42:01.604Z,5.56
2023-01-13T23:47:04.347Z,5.58
2023-01-13T23:52:07.317Z,5.59
2023-01-13T23:57:10.217Z,5.61
